sensor_id;sensor_type;location;lat;lon;timestamp;temperature;humidity
74416;SHT31;62850;42.428;25.618;2022-10-28T00:03:35;13.99;65.86
74416;SHT31;62850;42.428;25.618;2022-10-28T00:06:07;13.92;66.01
74416;SHT31;62850;42.428;25.618;2022-10-28T00:08:33;13.89;66.34
74416;SHT31;62850;42.428;25.618;2022-10-28T00:13:29;13.85;66.42
74416;SHT31;62850;42.428;25.618;2022-10-28T00:15:55;13.87;66.52
74416;SHT31;62850;42.428;25.618;2022-10-28T00:18:20;13.89;66.43
74416;SHT31;62850;42.428;25.618;2022-10-28T00:20:45;13.83;66.71
74416;SHT31;62850;42.428;25.618;2022-10-28T00:23:11;13.86;66.68
74416;SHT31;62850;42.428;25.618;2022-10-28T00:25:36;13.89;66.43
74416;SHT31;62850;42.428;25.618;2022-10-28T00:28:02;13.90;66.53
74416;SHT31;62850;42.428;25.618;2022-10-28T00:30:28;13.89;66.78
74416;SHT31;62850;42.428;25.618;2022-10-28T00:32:53;13.79;67.00
74416;SHT31;62850;42.428;25.618;2022-10-28T00:35:19;13.75;67.11
74416;SHT31;62850;42.428;25.618;2022-10-28T00:37:44;13.68;67.19
74416;SHT31;62850;42.428;25.618;2022-10-28T00:40:10;13.71;66.99
74416;SHT31;62850;42.428;25.618;2022-10-28T00:42:35;13.69;67.24
74416;SHT31;62850;42.428;25.618;2022-10-28T00:45:01;13.66;67.23
74416;SHT31;62850;42.428;25.618;2022-10-28T00:47:41;13.59;67.53
74416;SHT31;62850;42.428;25.618;2022-10-28T00:52:44;13.47;68.00
74416;SHT31;62850;42.428;25.618;2022-10-28T00:55:12;13.44;68.14
74416;SHT31;62850;42.428;25.618;2022-10-28T00:57:40;13.40;68.41
74416;SHT31;62850;42.428;25.618;2022-10-28T01:00:07;13.35;68.59
74416;SHT31;62850;42.428;25.618;2022-10-28T01:02:38;13.35;68.58
74416;SHT31;62850;42.428;25.618;2022-10-28T01:05:06;13.37;68.59
74416;SHT31;62850;42.428;25.618;2022-10-28T01:07:32;13.35;68.59
74416;SHT31;62850;42.428;25.618;2022-10-28T01:09:57;13.35;68.69
74416;SHT31;62850;42.428;25.618;2022-10-28T01:12:34;13.27;69.05
74416;SHT31;62850;42.428;25.618;2022-10-28T01:20:47;13.11;69.37
74416;SHT31;62850;42.428;25.618;2022-10-28T01:31:46;12.87;69.65
74416;SHT31;62850;42.428;25.618;2022-10-28T01:34:34;12.77;70.42
74416;SHT31;62850;42.428;25.618;2022-10-28T01:37:26;12.77;70.43
74416;SHT31;62850;42.428;25.618;2022-10-28T01:40:14;12.76;70.66
74416;SHT31;62850;42.428;25.618;2022-10-28T01:43:05;12.76;70.75
74416;SHT31;62850;42.428;25.618;2022-10-28T01:45:47;12.75;70.92
74416;SHT31;62850;42.428;25.618;2022-10-28T01:48:18;12.69;70.87
74416;SHT31;62850;42.428;25.618;2022-10-28T01:50:55;12.57;71.25
74416;SHT31;62850;42.428;25.618;2022-10-28T01:53:29;12.60;71.37
74416;SHT31;62850;42.428;25.618;2022-10-28T01:55:58;12.66;71.15
74416;SHT31;62850;42.428;25.618;2022-10-28T01:58:28;12.75;70.87
74416;SHT31;62850;42.428;25.618;2022-10-28T02:00:55;12.73;70.70
74416;SHT31;62850;42.428;25.618;2022-10-28T02:03:23;12.79;70.43
74416;SHT31;62850;42.428;25.618;2022-10-28T02:05:52;12.77;70.48
74416;SHT31;62850;42.428;25.618;2022-10-28T02:25:29;12.63;70.86
74416;SHT31;62850;42.428;25.618;2022-10-28T02:27:58;12.57;71.01
74416;SHT31;62850;42.428;25.618;2022-10-28T02:33:17;12.59;70.97
74416;SHT31;62850;42.428;25.618;2022-10-28T02:35:48;12.57;71.08
74416;SHT31;62850;42.428;25.618;2022-10-28T02:38:26;12.44;71.57
74416;SHT31;62850;42.428;25.618;2022-10-28T02:40:55;12.48;71.83
74416;SHT31;62850;42.428;25.618;2022-10-28T02:43:24;12.50;71.80
74416;SHT31;62850;42.428;25.618;2022-10-28T02:45:53;12.53;71.62
74416;SHT31;62850;42.428;25.618;2022-10-28T02:48:39;12.57;71.68
74416;SHT31;62850;42.428;25.618;2022-10-28T02:51:20;12.62;71.49
74416;SHT31;62850;42.428;25.618;2022-10-28T02:54:09;12.63;71.43
74416;SHT31;62850;42.428;25.618;2022-10-28T02:56:44;12.65;71.19
74416;SHT31;62850;42.428;25.618;2022-10-28T02:59:12;12.63;71.27
74416;SHT31;62850;42.428;25.618;2022-10-28T03:01:38;12.63;71.35
74416;SHT31;62850;42.428;25.618;2022-10-28T03:04:04;12.62;71.27
74416;SHT31;62850;42.428;25.618;2022-10-28T03:06:30;12.62;71.20
74416;SHT31;62850;42.428;25.618;2022-10-28T03:08:55;12.60;71.38
74416;SHT31;62850;42.428;25.618;2022-10-28T03:11:21;12.65;71.16
74416;SHT31;62850;42.428;25.618;2022-10-28T03:13:46;12.56;71.18
74416;SHT31;62850;42.428;25.618;2022-10-28T03:16:12;12.53;70.94
74416;SHT31;62850;42.428;25.618;2022-10-28T03:18:37;12.44;71.34
74416;SHT31;62850;42.428;25.618;2022-10-28T03:21:03;12.45;71.35
74416;SHT31;62850;42.428;25.618;2022-10-28T03:23:28;12.53;71.29
74416;SHT31;62850;42.428;25.618;2022-10-28T03:25:54;12.60;71.08
74416;SHT31;62850;42.428;25.618;2022-10-28T03:28:19;12.63;70.85
74416;SHT31;62850;42.428;25.618;2022-10-28T03:30:44;12.62;70.70
74416;SHT31;62850;42.428;25.618;2022-10-28T03:33:10;12.73;70.34
74416;SHT31;62850;42.428;25.618;2022-10-28T03:35:36;12.70;70.19
74416;SHT31;62850;42.428;25.618;2022-10-28T03:38:01;12.72;69.62
74416;SHT31;62850;42.428;25.618;2022-10-28T03:40:27;12.80;69.14
74416;SHT31;62850;42.428;25.618;2022-10-28T03:42:52;12.94;68.66
74416;SHT31;62850;42.428;25.618;2022-10-28T03:45:18;12.97;67.93
74416;SHT31;62850;42.428;25.618;2022-10-28T03:47:43;13.07;67.39
74416;SHT31;62850;42.428;25.618;2022-10-28T03:50:09;13.18;67.28
74416;SHT31;62850;42.428;25.618;2022-10-28T03:52:34;13.30;67.80
74416;SHT31;62850;42.428;25.618;2022-10-28T03:55:00;13.40;67.38
74416;SHT31;62850;42.428;25.618;2022-10-28T03:57:29;13.47;67.35
74416;SHT31;62850;42.428;25.618;2022-10-28T03:59:54;13.44;67.52
74416;SHT31;62850;42.428;25.618;2022-10-28T04:02:19;13.43;67.40
74416;SHT31;62850;42.428;25.618;2022-10-28T04:04:45;13.43;67.09
74416;SHT31;62850;42.428;25.618;2022-10-28T04:07:10;13.37;66.82
74416;SHT31;62850;42.428;25.618;2022-10-28T04:09:36;13.48;67.16
74416;SHT31;62850;42.428;25.618;2022-10-28T04:12:01;13.47;67.24
74416;SHT31;62850;42.428;25.618;2022-10-28T04:14:27;13.48;67.10
74416;SHT31;62850;42.428;25.618;2022-10-28T04:16:52;13.40;67.34
74416;SHT31;62850;42.428;25.618;2022-10-28T04:19:18;13.44;67.25
74416;SHT31;62850;42.428;25.618;2022-10-28T04:21:43;13.44;67.39
74416;SHT31;62850;42.428;25.618;2022-10-28T04:24:09;13.44;67.23
74416;SHT31;62850;42.428;25.618;2022-10-28T04:26:34;13.45;67.36
74416;SHT31;62850;42.428;25.618;2022-10-28T04:29:00;13.47;67.20
74416;SHT31;62850;42.428;25.618;2022-10-28T04:31:25;13.48;67.23
74416;SHT31;62850;42.428;25.618;2022-10-28T04:33:51;13.40;67.76
74416;SHT31;62850;42.428;25.618;2022-10-28T04:36:16;13.30;68.04
74416;SHT31;62850;42.428;25.618;2022-10-28T04:38:42;13.20;68.46
74416;SHT31;62850;42.428;25.618;2022-10-28T04:41:13;13.07;68.96
74416;SHT31;62850;42.428;25.618;2022-10-28T04:43:39;12.96;69.29
74416;SHT31;62850;42.428;25.618;2022-10-28T04:46:04;12.86;69.74
74416;SHT31;62850;42.428;25.618;2022-10-28T04:48:31;12.84;69.87
74416;SHT31;62850;42.428;25.618;2022-10-28T04:50:57;12.83;69.95
74416;SHT31;62850;42.428;25.618;2022-10-28T04:53:22;12.77;70.23
74416;SHT31;62850;42.428;25.618;2022-10-28T04:55:48;12.79;70.05
74416;SHT31;62850;42.428;25.618;2022-10-28T04:58:13;12.80;70.03
74416;SHT31;62850;42.428;25.618;2022-10-28T05:00:39;12.67;70.41
74416;SHT31;62850;42.428;25.618;2022-10-28T05:03:04;12.70;70.41
74416;SHT31;62850;42.428;25.618;2022-10-28T05:05:30;12.55;70.73
74416;SHT31;62850;42.428;25.618;2022-10-28T05:07:56;12.56;70.61
74416;SHT31;62850;42.428;25.618;2022-10-28T05:10:21;12.69;70.18
74416;SHT31;62850;42.428;25.618;2022-10-28T05:12:47;12.77;69.69
74416;SHT31;62850;42.428;25.618;2022-10-28T05:15:13;12.83;69.52
74416;SHT31;62850;42.428;25.618;2022-10-28T05:17:43;12.87;69.56
74416;SHT31;62850;42.428;25.618;2022-10-28T05:20:10;12.86;69.74
74416;SHT31;62850;42.428;25.618;2022-10-28T05:22:36;12.90;69.42
74416;SHT31;62850;42.428;25.618;2022-10-28T05:25:03;13.00;69.44
74416;SHT31;62850;42.428;25.618;2022-10-28T05:27:29;13.15;68.37
74416;SHT31;62850;42.428;25.618;2022-10-28T05:29:54;13.28;66.86
74416;SHT31;62850;42.428;25.618;2022-10-28T05:32:20;13.33;67.31
74416;SHT31;62850;42.428;25.618;2022-10-28T05:34:45;13.38;67.47
74416;SHT31;62850;42.428;25.618;2022-10-28T05:37:11;13.51;67.32
74416;SHT31;62850;42.428;25.618;2022-10-28T05:39:36;13.55;67.50
74416;SHT31;62850;42.428;25.618;2022-10-28T05:42:02;13.57;67.40
74416;SHT31;62850;42.428;25.618;2022-10-28T05:44:27;13.62;67.40
74416;SHT31;62850;42.428;25.618;2022-10-28T05:46:53;13.64;67.70
74416;SHT31;62850;42.428;25.618;2022-10-28T05:49:19;13.64;67.91
74416;SHT31;62850;42.428;25.618;2022-10-28T05:51:45;13.65;68.09
74416;SHT31;62850;42.428;25.618;2022-10-28T05:54:11;13.66;67.95
74416;SHT31;62850;42.428;25.618;2022-10-28T05:56:37;13.75;67.72
74416;SHT31;62850;42.428;25.618;2022-10-28T05:59:02;13.73;68.79
74416;SHT31;62850;42.428;25.618;2022-10-28T06:01:28;13.76;68.22
74416;SHT31;62850;42.428;25.618;2022-10-28T06:03:53;13.87;67.35
74416;SHT31;62850;42.428;25.618;2022-10-28T06:06:19;13.95;67.58
74416;SHT31;62850;42.428;25.618;2022-10-28T06:08:44;13.99;67.22
74416;SHT31;62850;42.428;25.618;2022-10-28T06:11:10;14.06;66.89
74416;SHT31;62850;42.428;25.618;2022-10-28T06:13:35;14.10;66.97
74416;SHT31;62850;42.428;25.618;2022-10-28T06:16:01;14.20;66.52
74416;SHT31;62850;42.428;25.618;2022-10-28T06:18:26;14.29;66.53
74416;SHT31;62850;42.428;25.618;2022-10-28T06:21:01;14.33;66.34
74416;SHT31;62850;42.428;25.618;2022-10-28T06:23:27;14.37;66.29
74416;SHT31;62850;42.428;25.618;2022-10-28T06:25:59;14.43;66.53
74416;SHT31;62850;42.428;25.618;2022-10-28T06:28:26;14.53;66.13
74416;SHT31;62850;42.428;25.618;2022-10-28T06:30:52;14.56;65.98
74416;SHT31;62850;42.428;25.618;2022-10-28T06:33:17;14.57;65.50
74416;SHT31;62850;42.428;25.618;2022-10-28T06:35:43;14.54;64.93
74416;SHT31;62850;42.428;25.618;2022-10-28T06:38:08;14.59;65.41
74416;SHT31;62850;42.428;25.618;2022-10-28T06:40:34;14.65;65.60
74416;SHT31;62850;42.428;25.618;2022-10-28T06:43:04;14.72;65.12
74416;SHT31;62850;42.428;25.618;2022-10-28T06:45:32;14.80;65.19
74416;SHT31;62850;42.428;25.618;2022-10-28T06:47:59;14.87;64.97
74416;SHT31;62850;42.428;25.618;2022-10-28T06:50:26;14.85;65.57
74416;SHT31;62850;42.428;25.618;2022-10-28T06:52:57;14.98;65.51
74416;SHT31;62850;42.428;25.618;2022-10-28T06:55:26;15.02;65.70
74416;SHT31;62850;42.428;25.618;2022-10-28T06:57:52;15.08;65.58
74416;SHT31;62850;42.428;25.618;2022-10-28T07:00:17;15.13;65.80
74416;SHT31;62850;42.428;25.618;2022-10-28T07:02:43;15.19;65.58
74416;SHT31;62850;42.428;25.618;2022-10-28T07:05:08;15.25;64.93
74416;SHT31;62850;42.428;25.618;2022-10-28T07:07:34;15.33;64.97
74416;SHT31;62850;42.428;25.618;2022-10-28T07:10:04;15.39;64.83
74416;SHT31;62850;42.428;25.618;2022-10-28T07:12:30;15.42;64.80
74416;SHT31;62850;42.428;25.618;2022-10-28T07:14:56;15.47;64.40
74416;SHT31;62850;42.428;25.618;2022-10-28T07:17:21;15.53;64.61
74416;SHT31;62850;42.428;25.618;2022-10-28T07:19:47;15.51;64.46
74416;SHT31;62850;42.428;25.618;2022-10-28T07:22:12;15.57;64.17
74416;SHT31;62850;42.428;25.618;2022-10-28T07:24:38;15.56;64.27
74416;SHT31;62850;42.428;25.618;2022-10-28T07:27:03;15.60;64.33
74416;SHT31;62850;42.428;25.618;2022-10-28T07:29:29;15.63;64.27
74416;SHT31;62850;42.428;25.618;2022-10-28T07:31:55;15.69;64.07
74416;SHT31;62850;42.428;25.618;2022-10-28T07:34:20;15.74;63.92
74416;SHT31;62850;42.428;25.618;2022-10-28T07:36:53;15.76;64.05
74416;SHT31;62850;42.428;25.618;2022-10-28T07:39:20;15.80;64.09
74416;SHT31;62850;42.428;25.618;2022-10-28T07:41:46;15.80;64.31
74416;SHT31;62850;42.428;25.618;2022-10-28T07:44:12;15.81;64.62
74416;SHT31;62850;42.428;25.618;2022-10-28T07:46:38;15.90;64.67
74416;SHT31;62850;42.428;25.618;2022-10-28T07:49:03;15.96;64.52
74416;SHT31;62850;42.428;25.618;2022-10-28T07:51:29;15.96;64.38
74416;SHT31;62850;42.428;25.618;2022-10-28T07:53:57;16.00;64.22
74416;SHT31;62850;42.428;25.618;2022-10-28T07:56:23;16.02;64.02
74416;SHT31;62850;42.428;25.618;2022-10-28T07:58:48;16.02;64.10
74416;SHT31;62850;42.428;25.618;2022-10-28T08:01:16;15.97;64.08
74416;SHT31;62850;42.428;25.618;2022-10-28T08:03:42;16.05;64.19
74416;SHT31;62850;42.428;25.618;2022-10-28T08:06:14;16.11;64.01
74416;SHT31;62850;42.428;25.618;2022-10-28T08:08:42;16.15;63.18
74416;SHT31;62850;42.428;25.618;2022-10-28T08:11:17;16.18;63.21
74416;SHT31;62850;42.428;25.618;2022-10-28T08:13:43;16.24;63.00
74416;SHT31;62850;42.428;25.618;2022-10-28T08:16:09;16.29;62.64
74416;SHT31;62850;42.428;25.618;2022-10-28T08:18:36;16.35;62.25
74416;SHT31;62850;42.428;25.618;2022-10-28T08:21:03;16.41;62.20
74416;SHT31;62850;42.428;25.618;2022-10-28T08:23:29;16.44;61.82
74416;SHT31;62850;42.428;25.618;2022-10-28T08:25:55;16.47;61.60
74416;SHT31;62850;42.428;25.618;2022-10-28T08:28:20;16.52;61.23
74416;SHT31;62850;42.428;25.618;2022-10-28T08:30:46;16.48;60.83
74416;SHT31;62850;42.428;25.618;2022-10-28T08:33:13;16.56;60.82
74416;SHT31;62850;42.428;25.618;2022-10-28T08:35:39;16.53;60.78
74416;SHT31;62850;42.428;25.618;2022-10-28T08:38:05;16.65;60.80
74416;SHT31;62850;42.428;25.618;2022-10-28T08:40:36;16.68;60.51
74416;SHT31;62850;42.428;25.618;2022-10-28T08:43:13;16.75;60.26
74416;SHT31;62850;42.428;25.618;2022-10-28T08:46:03;16.83;60.18
74416;SHT31;62850;42.428;25.618;2022-10-28T08:48:35;16.89;60.06
74416;SHT31;62850;42.428;25.618;2022-10-28T08:51:14;16.99;59.66
74416;SHT31;62850;42.428;25.618;2022-10-28T08:53:46;17.04;59.23
74416;SHT31;62850;42.428;25.618;2022-10-28T08:56:18;17.14;59.19
74416;SHT31;62850;42.428;25.618;2022-10-28T08:58:47;17.16;58.76
74416;SHT31;62850;42.428;25.618;2022-10-28T09:01:40;17.24;58.06
74416;SHT31;62850;42.428;25.618;2022-10-28T09:04:37;17.30;58.12
74416;SHT31;62850;42.428;25.618;2022-10-28T09:07:05;17.35;57.51
74416;SHT31;62850;42.428;25.618;2022-10-28T09:09:31;17.39;56.96
74416;SHT31;62850;42.428;25.618;2022-10-28T09:15:59;17.61;56.48
74416;SHT31;62850;42.428;25.618;2022-10-28T09:18:01;17.67;53.71
74416;SHT31;62850;42.428;25.618;2022-10-28T09:20:51;17.72;54.03
74416;SHT31;62850;42.428;25.618;2022-10-28T09:23:22;17.82;53.79
74416;SHT31;62850;42.428;25.618;2022-10-28T09:29:07;18.02;51.78
74416;SHT31;62850;42.428;25.618;2022-10-28T09:31:38;18.12;51.65
74416;SHT31;62850;42.428;25.618;2022-10-28T09:36:50;18.25;52.04
74416;SHT31;62850;42.428;25.618;2022-10-28T09:39:26;18.32;51.45
74416;SHT31;62850;42.428;25.618;2022-10-28T09:41:53;18.37;50.28
74416;SHT31;62850;42.428;25.618;2022-10-28T09:44:29;18.44;49.08
74416;SHT31;62850;42.428;25.618;2022-10-28T09:47:02;18.53;48.64
74416;SHT31;62850;42.428;25.618;2022-10-28T09:49:33;18.63;48.39
74416;SHT31;62850;42.428;25.618;2022-10-28T09:54:41;18.77;48.12
74416;SHT31;62850;42.428;25.618;2022-10-28T09:57:08;18.83;47.57
74416;SHT31;62850;42.428;25.618;2022-10-28T09:59:33;18.83;45.92
74416;SHT31;62850;42.428;25.618;2022-10-28T10:01:59;18.94;45.86
74416;SHT31;62850;42.428;25.618;2022-10-28T10:04:27;19.02;45.92
74416;SHT31;62850;42.428;25.618;2022-10-28T10:07:09;19.11;45.59
74416;SHT31;62850;42.428;25.618;2022-10-28T10:09:36;19.11;45.66
74416;SHT31;62850;42.428;25.618;2022-10-28T10:12:12;19.12;44.95
74416;SHT31;62850;42.428;25.618;2022-10-28T10:14:57;19.14;44.40
74416;SHT31;62850;42.428;25.618;2022-10-28T10:17:28;19.16;44.18
74416;SHT31;62850;42.428;25.618;2022-10-28T10:20:03;19.23;44.64
74416;SHT31;62850;42.428;25.618;2022-10-28T10:22:31;19.26;44.61
74416;SHT31;62850;42.428;25.618;2022-10-28T10:24:57;19.33;44.65
74416;SHT31;62850;42.428;25.618;2022-10-28T10:27:24;19.42;44.74
74416;SHT31;62850;42.428;25.618;2022-10-28T10:29:51;19.42;44.99
74416;SHT31;62850;42.428;25.618;2022-10-28T10:32:17;19.42;44.65
74416;SHT31;62850;42.428;25.618;2022-10-28T10:34:49;19.50;44.36
74416;SHT31;62850;42.428;25.618;2022-10-28T10:37:19;19.53;43.98
74416;SHT31;62850;42.428;25.618;2022-10-28T10:45:51;19.57;43.36
74416;SHT31;62850;42.428;25.618;2022-10-28T10:48:17;19.69;43.71
74416;SHT31;62850;42.428;25.618;2022-10-28T10:50:45;19.71;43.30
74416;SHT31;62850;42.428;25.618;2022-10-28T10:53:30;19.70;43.25
74416;SHT31;62850;42.428;25.618;2022-10-28T10:56:02;19.71;43.90
74416;SHT31;62850;42.428;25.618;2022-10-28T10:58:31;19.74;42.72
74416;SHT31;62850;42.428;25.618;2022-10-28T11:00:59;19.75;43.17
74416;SHT31;62850;42.428;25.618;2022-10-28T11:03:58;19.67;42.73
74416;SHT31;62850;42.428;25.618;2022-10-28T11:06:29;19.69;41.92
74416;SHT31;62850;42.428;25.618;2022-10-28T11:09:03;19.63;42.23
74416;SHT31;62850;42.428;25.618;2022-10-28T11:11:37;19.71;42.58
74416;SHT31;62850;42.428;25.618;2022-10-28T11:16:49;19.73;42.74
74416;SHT31;62850;42.428;25.618;2022-10-28T11:24:49;19.93;43.06
74416;SHT31;62850;42.428;25.618;2022-10-28T11:30:13;20.00;42.87
74416;SHT31;62850;42.428;25.618;2022-10-28T11:36:29;19.97;42.65
74416;SHT31;62850;42.428;25.618;2022-10-28T11:41:42;20.05;42.35
74416;SHT31;62850;42.428;25.618;2022-10-28T11:50:21;20.10;42.39
74416;SHT31;62850;42.428;25.618;2022-10-28T11:57:50;20.15;41.69
74416;SHT31;62850;42.428;25.618;2022-10-28T12:01:07;20.15;41.66
74416;SHT31;62850;42.428;25.618;2022-10-28T12:06:34;20.15;41.85
74416;SHT31;62850;42.428;25.618;2022-10-28T12:12:14;20.25;41.97
74416;SHT31;62850;42.428;25.618;2022-10-28T12:20:22;20.34;41.54
74416;SHT31;62850;42.428;25.618;2022-10-28T12:22:57;20.29;41.09
74416;SHT31;62850;42.428;25.618;2022-10-28T12:25:31;20.32;41.99
74416;SHT31;62850;42.428;25.618;2022-10-28T12:28:02;20.35;41.60
74416;SHT31;62850;42.428;25.618;2022-10-28T12:30:31;20.41;41.68
74416;SHT31;62850;42.428;25.618;2022-10-28T12:33:12;20.48;41.22
74416;SHT31;62850;42.428;25.618;2022-10-28T12:36:11;20.46;40.93
74416;SHT31;62850;42.428;25.618;2022-10-28T12:39:00;20.51;40.99
74416;SHT31;62850;42.428;25.618;2022-10-28T12:44:20;20.56;40.71
74416;SHT31;62850;42.428;25.618;2022-10-28T12:49:43;20.49;42.27
74416;SHT31;62850;42.428;25.618;2022-10-28T12:52:24;20.48;41.84
74416;SHT31;62850;42.428;25.618;2022-10-28T12:57:41;20.49;41.24
74416;SHT31;62850;42.428;25.618;2022-10-28T13:02:49;20.43;41.26
74416;SHT31;62850;42.428;25.618;2022-10-28T13:05:25;20.49;41.25
74416;SHT31;62850;42.428;25.618;2022-10-28T13:17:23;20.49;43.02
74416;SHT31;62850;42.428;25.618;2022-10-28T13:20:18;20.42;42.49
74416;SHT31;62850;42.428;25.618;2022-10-28T13:22:48;20.39;42.39
74416;SHT31;62850;42.428;25.618;2022-10-28T13:28:27;20.20;42.01
74416;SHT31;62850;42.428;25.618;2022-10-28T13:31:02;20.21;40.98
74416;SHT31;62850;42.428;25.618;2022-10-28T13:33:29;20.20;41.55
74416;SHT31;62850;42.428;25.618;2022-10-28T13:36:08;20.18;41.65
74416;SHT31;62850;42.428;25.618;2022-10-28T13:38:34;20.17;42.06
74416;SHT31;62850;42.428;25.618;2022-10-28T13:47:21;20.11;41.76
74416;SHT31;62850;42.428;25.618;2022-10-28T13:52:42;20.11;41.74
74416;SHT31;62850;42.428;25.618;2022-10-28T13:55:40;20.08;42.26
74416;SHT31;62850;42.428;25.618;2022-10-28T13:58:23;20.11;42.92
74416;SHT31;62850;42.428;25.618;2022-10-28T14:00:50;20.05;42.69
74416;SHT31;62850;42.428;25.618;2022-10-28T14:03:18;20.03;42.55
74416;SHT31;62850;42.428;25.618;2022-10-28T14:08:30;19.90;42.79
74416;SHT31;62850;42.428;25.618;2022-10-28T14:11:04;19.95;42.40
74416;SHT31;62850;42.428;25.618;2022-10-28T14:13:34;19.95;42.34
74416;SHT31;62850;42.428;25.618;2022-10-28T14:21:21;19.93;41.73
74416;SHT31;62850;42.428;25.618;2022-10-28T14:26:12;19.91;42.01
74416;SHT31;62850;42.428;25.618;2022-10-28T14:33:33;19.81;42.71
74416;SHT31;62850;42.428;25.618;2022-10-28T14:36:24;19.77;42.74
74416;SHT31;62850;42.428;25.618;2022-10-28T14:50:05;19.64;43.20
74416;SHT31;62850;42.428;25.618;2022-10-28T14:52:35;19.60;43.28
74416;SHT31;62850;42.428;25.618;2022-10-28T14:55:05;19.53;43.12
74416;SHT31;62850;42.428;25.618;2022-10-28T14:57:33;19.52;43.11
74416;SHT31;62850;42.428;25.618;2022-10-28T15:00:07;19.53;42.98
74416;SHT31;62850;42.428;25.618;2022-10-28T15:02:34;19.50;43.13
74416;SHT31;62850;42.428;25.618;2022-10-28T15:05:11;19.46;43.34
74416;SHT31;62850;42.428;25.618;2022-10-28T15:07:38;19.45;43.44
74416;SHT31;62850;42.428;25.618;2022-10-28T15:10:31;19.35;44.54
74416;SHT31;62850;42.428;25.618;2022-10-28T15:13:00;19.23;45.32
74416;SHT31;62850;42.428;25.618;2022-10-28T15:15:31;19.16;45.44
74416;SHT31;62850;42.428;25.618;2022-10-28T15:17:58;19.05;46.69
74416;SHT31;62850;42.428;25.618;2022-10-28T15:20:34;18.99;46.87
74416;SHT31;62850;42.428;25.618;2022-10-28T15:23:14;18.83;47.38
74416;SHT31;62850;42.428;25.618;2022-10-28T15:25:40;18.72;47.19
74416;SHT31;62850;42.428;25.618;2022-10-28T15:28:08;18.54;47.76
74416;SHT31;62850;42.428;25.618;2022-10-28T15:30:37;18.38;48.30
74416;SHT31;62850;42.428;25.618;2022-10-28T15:33:29;18.29;48.37
74416;SHT31;62850;42.428;25.618;2022-10-28T15:38:42;18.12;49.01
74416;SHT31;62850;42.428;25.618;2022-10-28T15:43:53;17.83;49.35
74416;SHT31;62850;42.428;25.618;2022-10-28T15:46:21;17.75;49.74
74416;SHT31;62850;42.428;25.618;2022-10-28T15:48:52;17.68;49.66
74416;SHT31;62850;42.428;25.618;2022-10-28T15:51:19;17.58;50.05
74416;SHT31;62850;42.428;25.618;2022-10-28T15:53:46;17.59;50.38
74416;SHT31;62850;42.428;25.618;2022-10-28T15:56:24;17.57;50.13
74416;SHT31;62850;42.428;25.618;2022-10-28T15:59:05;17.45;50.90
74416;SHT31;62850;42.428;25.618;2022-10-28T16:01:37;17.37;50.63
74416;SHT31;62850;42.428;25.618;2022-10-28T16:06:56;17.23;50.39
74416;SHT31;62850;42.428;25.618;2022-10-28T16:09:26;17.14;50.40
74416;SHT31;62850;42.428;25.618;2022-10-28T16:11:55;17.08;51.46
74416;SHT31;62850;42.428;25.618;2022-10-28T16:14:40;17.07;51.52
74416;SHT31;62850;42.428;25.618;2022-10-28T16:17:27;16.97;51.62
74416;SHT31;62850;42.428;25.618;2022-10-28T16:19:57;16.87;51.79
74416;SHT31;62850;42.428;25.618;2022-10-28T16:22:26;16.77;52.56
74416;SHT31;62850;42.428;25.618;2022-10-28T16:24:52;16.72;52.14
74416;SHT31;62850;42.428;25.618;2022-10-28T16:27:27;16.75;52.40
74416;SHT31;62850;42.428;25.618;2022-10-28T16:29:52;16.72;52.60
74416;SHT31;62850;42.428;25.618;2022-10-28T16:32:28;16.66;52.51
74416;SHT31;62850;42.428;25.618;2022-10-28T16:34:55;16.68;52.31
74416;SHT31;62850;42.428;25.618;2022-10-28T16:37:28;16.62;53.20
74416;SHT31;62850;42.428;25.618;2022-10-28T16:39:54;16.53;52.42
74416;SHT31;62850;42.428;25.618;2022-10-28T16:42:21;16.49;52.40
74416;SHT31;62850;42.428;25.618;2022-10-28T16:44:47;16.49;52.47
74416;SHT31;62850;42.428;25.618;2022-10-28T16:47:14;16.48;52.22
74416;SHT31;62850;42.428;25.618;2022-10-28T16:49:41;16.48;52.45
74416;SHT31;62850;42.428;25.618;2022-10-28T16:52:16;16.47;52.90
74416;SHT31;62850;42.428;25.618;2022-10-28T16:54:42;16.36;52.85
74416;SHT31;62850;42.428;25.618;2022-10-28T16:57:08;16.38;52.74
74416;SHT31;62850;42.428;25.618;2022-10-28T16:59:33;16.35;52.79
74416;SHT31;62850;42.428;25.618;2022-10-28T17:01:59;16.32;53.51
74416;SHT31;62850;42.428;25.618;2022-10-28T17:04:25;16.22;52.99
74416;SHT31;62850;42.428;25.618;2022-10-28T17:06:50;16.21;52.91
74416;SHT31;62850;42.428;25.618;2022-10-28T17:09:16;16.28;52.49
74416;SHT31;62850;42.428;25.618;2022-10-28T17:11:42;16.33;52.71
74416;SHT31;62850;42.428;25.618;2022-10-28T17:14:07;16.35;52.24
74416;SHT31;62850;42.428;25.618;2022-10-28T17:16:33;16.35;52.33
74416;SHT31;62850;42.428;25.618;2022-10-28T17:18:59;16.36;52.28
74416;SHT31;62850;42.428;25.618;2022-10-28T17:21:24;16.31;52.61
74416;SHT31;62850;42.428;25.618;2022-10-28T17:23:50;16.29;52.40
74416;SHT31;62850;42.428;25.618;2022-10-28T17:26:15;16.38;51.92
74416;SHT31;62850;42.428;25.618;2022-10-28T17:28:41;16.44;52.19
74416;SHT31;62850;42.428;25.618;2022-10-28T17:31:08;16.45;52.30
74416;SHT31;62850;42.428;25.618;2022-10-28T17:33:34;16.36;52.10
74416;SHT31;62850;42.428;25.618;2022-10-28T17:36:03;16.41;52.25
74416;SHT31;62850;42.428;25.618;2022-10-28T17:38:30;16.36;52.14
74416;SHT31;62850;42.428;25.618;2022-10-28T17:40:56;16.39;52.46
74416;SHT31;62850;42.428;25.618;2022-10-28T17:43:22;16.38;52.09
74416;SHT31;62850;42.428;25.618;2022-10-28T17:45:48;16.39;52.18
74416;SHT31;62850;42.428;25.618;2022-10-28T17:48:14;16.29;52.27
74416;SHT31;62850;42.428;25.618;2022-10-28T17:50:39;16.28;51.92
74416;SHT31;62850;42.428;25.618;2022-10-28T17:53:05;16.36;51.46
74416;SHT31;62850;42.428;25.618;2022-10-28T17:55:30;16.35;51.89
74416;SHT31;62850;42.428;25.618;2022-10-28T17:57:57;16.32;51.50
74416;SHT31;62850;42.428;25.618;2022-10-28T18:00:23;16.25;52.95
74416;SHT31;62850;42.428;25.618;2022-10-28T18:02:54;16.26;52.27
74416;SHT31;62850;42.428;25.618;2022-10-28T18:05:19;16.22;54.44
74416;SHT31;62850;42.428;25.618;2022-10-28T18:07:45;16.21;52.23
74416;SHT31;62850;42.428;25.618;2022-10-28T18:10:10;16.10;52.47
74416;SHT31;62850;42.428;25.618;2022-10-28T18:12:36;16.11;53.61
74416;SHT31;62850;42.428;25.618;2022-10-28T18:15:01;16.08;52.94
74416;SHT31;62850;42.428;25.618;2022-10-28T18:17:27;16.08;53.13